sensor_id;sensor_type;location;lat;lon;timestamp;pressure;altitude;pressure_sealevel;temperature;humidity
8627;BME280;4351;51.422;6.794;2022-09-09T00:02:05;107680.59;;;15.77;48.96
8627;BME280;4351;51.422;6.794;2022-09-09T00:04:37;107729.75;;;15.82;48.93
8627;BME280;4351;51.422;6.794;2022-09-09T00:07:10;107718.53;;;15.69;49.05
8627;BME280;4351;51.422;6.794;2022-09-09T00:09:46;107741.16;;;15.67;48.90
8627;BME280;4351;51.422;6.794;2022-09-09T00:12:19;107822.34;;;15.79;48.83
8627;BME280;4351;51.422;6.794;2022-09-09T00:14:54;107913.28;;;15.82;48.85
8627;BME280;4351;51.422;6.794;2022-09-09T00:17:33;107954.75;;;15.72;48.88
8627;BME280;4351;51.422;6.794;2022-09-09T00:20:11;108033.88;;;15.75;48.82
8627;BME280;4351;51.422;6.794;2022-09-09T00:22:43;108104.78;;;15.77;49.07
8627;BME280;4351;51.422;6.794;2022-09-09T00:25:21;108155.41;;;15.70;48.89
8627;BME280;4351;51.422;6.794;2022-09-09T00:27:51;108149.72;;;15.62;48.92
8627;BME280;4351;51.422;6.794;2022-09-09T00:30:23;108179.91;;;15.68;48.91
8627;BME280;4351;51.422;6.794;2022-09-09T00:32:54;108152.16;;;15.54;48.98
8627;BME280;4351;51.422;6.794;2022-09-09T00:35:29;108161.28;;;15.56;49.00
8627;BME280;4351;51.422;6.794;2022-09-09T00:38:01;108215.09;;;15.62;48.97
8627;BME280;4351;51.422;6.794;2022-09-09T00:40:33;108269.75;;;15.67;48.95
8627;BME280;4351;51.422;6.794;2022-09-09T00:43:21;108317.63;;;15.60;49.25
8627;BME280;4351;51.422;6.794;2022-09-09T00:46:08;108388.66;;;15.65;49.20
8627;BME280;4351;51.422;6.794;2022-09-09T00:48:51;108453.84;;;15.60;49.19
8627;BME280;4351;51.422;6.794;2022-09-09T00:51:29;108530.50;;;15.68;49.14
8627;BME280;4351;51.422;6.794;2022-09-09T00:54:17;108565.56;;;15.60;49.25
8627;BME280;4351;51.422;6.794;2022-09-09T00:56:56;108611.91;;;15.60;49.21
8627;BME280;4351;51.422;6.794;2022-09-09T00:59:33;108669.41;;;15.66;48.83
8627;BME280;4351;51.422;6.794;2022-09-09T01:02:07;108658.06;;;15.55;48.89
8627;BME280;4351;51.422;6.794;2022-09-09T01:04:41;108683.31;;;15.51;48.89
8627;BME280;4351;51.422;6.794;2022-09-09T01:07:16;108699.66;;;15.51;48.72
8627;BME280;4351;51.422;6.794;2022-09-09T01:09:52;108744.41;;;15.58;49.25
8627;BME280;4351;51.422;6.794;2022-09-09T01:12:26;108762.50;;;15.56;49.25
8627;BME280;4351;51.422;6.794;2022-09-09T01:15:04;108806.25;;;15.59;49.19
8627;BME280;4351;51.422;6.794;2022-09-09T01:17:50;108832.22;;;15.50;49.43
8627;BME280;4351;51.422;6.794;2022-09-09T01:20:24;108863.97;;;15.50;49.40
8627;BME280;4351;51.422;6.794;2022-09-09T01:23:19;108922.13;;;15.50;49.23
8627;BME280;4351;51.422;6.794;2022-09-09T01:26:18;108952.81;;;15.46;49.10
8627;BME280;4351;51.422;6.794;2022-09-09T01:28:49;108972.59;;;15.42;49.11
8627;BME280;4351;51.422;6.794;2022-09-09T01:31:27;109012.66;;;15.45;49.04
8627;BME280;4351;51.422;6.794;2022-09-09T01:33:56;109037.53;;;15.51;48.90
8627;BME280;4351;51.422;6.794;2022-09-09T01:36:31;109040.78;;;15.44;48.93
8627;BME280;4351;51.422;6.794;2022-09-09T01:39:01;109055.34;;;15.44;48.90
8627;BME280;4351;51.422;6.794;2022-09-09T01:41:32;109044.91;;;15.35;48.96
8627;BME280;4351;51.422;6.794;2022-09-09T01:44:08;109073.94;;;15.35;48.88
8627;BME280;4351;51.422;6.794;2022-09-09T01:46:39;109102.13;;;15.35;48.82
8627;BME280;4351;51.422;6.794;2022-09-09T01:49:17;109104.41;;;15.27;48.88
8627;BME280;4351;51.422;6.794;2022-09-09T01:51:50;109093.16;;;15.20;48.96
8627;BME280;4351;51.422;6.794;2022-09-09T01:54:27;109130.97;;;15.32;48.87
8627;BME280;4351;51.422;6.794;2022-09-09T01:57:07;109078.81;;;15.24;48.97
8627;BME280;4351;51.422;6.794;2022-09-09T01:59:53;109146.63;;;15.36;48.83
8627;BME280;4351;51.422;6.794;2022-09-09T02:02:30;109078.59;;;15.19;49.00
8627;BME280;4351;51.422;6.794;2022-09-09T02:05:16;109092.91;;;15.15;48.97
8627;BME280;4351;51.422;6.794;2022-09-09T02:07:47;109147.69;;;15.21;48.91
8627;BME280;4351;51.422;6.794;2022-09-09T02:10:31;109255.78;;;15.39;48.69
8627;BME280;4351;51.422;6.794;2022-09-09T02:13:16;109242.19;;;15.22;48.78
8627;BME280;4351;51.422;6.794;2022-09-09T02:15:50;109323.69;;;15.36;48.64
8627;BME280;4351;51.422;6.794;2022-09-09T02:18:24;109332.81;;;15.36;48.61
8627;BME280;4351;51.422;6.794;2022-09-09T02:20:56;109372.25;;;15.43;48.59
8627;BME280;4351;51.422;6.794;2022-09-09T02:23:26;109371.97;;;15.38;48.63
8627;BME280;4351;51.422;6.794;2022-09-09T02:25:57;109385.59;;;15.38;48.61
8627;BME280;4351;51.422;6.794;2022-09-09T02:28:29;109417.97;;;15.49;48.52
8627;BME280;4351;51.422;6.794;2022-09-09T02:31:00;109446.84;;;15.45;48.52
8627;BME280;4351;51.422;6.794;2022-09-09T02:33:39;109475.97;;;15.46;48.44
8627;BME280;4351;51.422;6.794;2022-09-09T02:36:12;109488.38;;;15.41;48.45
8627;BME280;4351;51.422;6.794;2022-09-09T02:38:46;109543.06;;;15.44;48.39
8627;BME280;4351;51.422;6.794;2022-09-09T02:41:30;109638.91;;;15.52;48.24
8627;BME280;4351;51.422;6.794;2022-09-09T02:44:01;109679.69;;;15.50;48.20
8627;BME280;4351;51.422;6.794;2022-09-09T02:46:42;109707.78;;;15.49;48.15
8627;BME280;4351;51.422;6.794;2022-09-09T02:49:21;109707.03;;;15.37;48.19
8627;BME280;4351;51.422;6.794;2022-09-09T02:51:59;109746.59;;;15.45;48.11
8627;BME280;4351;51.422;6.794;2022-09-09T02:54:31;109787.47;;;15.45;48.12
8627;BME280;4351;51.422;6.794;2022-09-09T02:57:09;109795.72;;;15.47;48.10
8627;BME280;4351;51.422;6.794;2022-09-09T02:59:43;109852.81;;;15.59;48.01
8627;BME280;4351;51.422;6.794;2022-09-09T03:02:12;109835.59;;;15.60;48.04
8627;BME280;4351;51.422;6.794;2022-09-09T03:04:45;109800.63;;;15.52;48.15
8627;BME280;4351;51.422;6.794;2022-09-09T03:07:21;109767.06;;;15.54;48.22
8627;BME280;4351;51.422;6.794;2022-09-09T03:09:51;109729.94;;;15.56;48.27
8627;BME280;4351;51.422;6.794;2022-09-09T03:12:24;109677.25;;;15.55;48.35
8627;BME280;4351;51.422;6.794;2022-09-09T03:14:54;109677.69;;;15.63;48.39
8627;BME280;4351;51.422;6.794;2022-09-09T03:17:24;109573.28;;;15.49;48.57
8627;BME280;4351;51.422;6.794;2022-09-09T03:19:56;109517.88;;;15.48;48.63
8627;BME280;4351;51.422;6.794;2022-09-09T03:22:25;109526.47;;;15.56;48.57
8627;BME280;4351;51.422;6.794;2022-09-09T03:24:56;109451.53;;;15.48;48.75
8627;BME280;4351;51.422;6.794;2022-09-09T03:27:24;109414.31;;;15.48;48.78
8627;BME280;4351;51.422;6.794;2022-09-09T03:29:56;109397.38;;;15.54;48.77
8627;BME280;4351;51.422;6.794;2022-09-09T03:32:25;109373.84;;;15.56;48.78
8627;BME280;4351;51.422;6.794;2022-09-09T03:34:55;109396.94;;;15.63;48.72
8627;BME280;4351;51.422;6.794;2022-09-09T03:37:25;109393.00;;;15.58;48.74
8627;BME280;4351;51.422;6.794;2022-09-09T03:39:53;109405.81;;;15.59;48.72
8627;BME280;4351;51.422;6.794;2022-09-09T03:42:22;109425.06;;;15.62;48.66
8627;BME280;4351;51.422;6.794;2022-09-09T03:44:55;109443.97;;;15.59;48.66
8627;BME280;4351;51.422;6.794;2022-09-09T03:47:25;109458.59;;;15.61;48.62
8627;BME280;4351;51.422;6.794;2022-09-09T03:50:00;109462.84;;;15.56;48.62
8627;BME280;4351;51.422;6.794;2022-09-09T03:52:28;109515.16;;;15.65;48.49
8627;BME280;4351;51.422;6.794;2022-09-09T03:54:57;109529.28;;;15.58;48.50
8627;BME280;4351;51.422;6.794;2022-09-09T03:57:26;109573.16;;;15.62;48.42
8627;BME280;4351;51.422;6.794;2022-09-09T03:59:58;109574.44;;;15.52;48.43
8627;BME280;4351;51.422;6.794;2022-09-09T04:02:31;109653.34;;;15.66;48.27
8627;BME280;4351;51.422;6.794;2022-09-09T04:05:00;109635.41;;;15.55;48.32
8627;BME280;4351;51.422;6.794;2022-09-09T04:07:28;109663.63;;;15.55;48.26
8627;BME280;4351;51.422;6.794;2022-09-09T04:09:56;109694.34;;;15.52;48.24
8627;BME280;4351;51.422;6.794;2022-09-09T04:12:25;109723.84;;;15.60;48.17
8627;BME280;4351;51.422;6.794;2022-09-09T04:14:53;109743.56;;;15.56;48.18
8627;BME280;4351;51.422;6.794;2022-09-09T04:17:23;109753.06;;;15.62;48.13
8627;BME280;4351;51.422;6.794;2022-09-09T04:19:51;109771.03;;;15.59;48.14
8627;BME280;4351;51.422;6.794;2022-09-09T04:22:21;109772.06;;;15.61;48.11
8627;BME280;4351;51.422;6.794;2022-09-09T04:24:49;109768.22;;;15.57;48.14
8627;BME280;4351;51.422;6.794;2022-09-09T04:27:19;109845.59;;;15.74;48.04
8627;BME280;4351;51.422;6.794;2022-09-09T04:29:47;109792.19;;;15.63;48.11
8627;BME280;4351;51.422;6.794;2022-09-09T04:32:16;109772.91;;;15.60;48.13
8627;BME280;4351;51.422;6.794;2022-09-09T04:34:46;109780.63;;;15.67;48.10
8627;BME280;4351;51.422;6.794;2022-09-09T04:37:16;109784.38;;;15.69;48.10
8627;BME280;4351;51.422;6.794;2022-09-09T04:39:44;109818.50;;;15.78;48.01
8627;BME280;4351;51.422;6.794;2022-09-09T04:42:12;109803.09;;;15.78;48.06
8627;BME280;4351;51.422;6.794;2022-09-09T04:44:42;109766.53;;;15.74;48.10
8627;BME280;4351;51.422;6.794;2022-09-09T04:47:11;109751.66;;;15.69;48.13
8627;BME280;4351;51.422;6.794;2022-09-09T04:49:41;109772.63;;;15.70;48.08
8627;BME280;4351;51.422;6.794;2022-09-09T04:52:11;109796.44;;;15.73;48.05
8627;BME280;4351;51.422;6.794;2022-09-09T04:54:39;109820.09;;;15.74;48.02
8627;BME280;4351;51.422;6.794;2022-09-09T04:57:10;109847.00;;;15.83;47.96
8627;BME280;4351;51.422;6.794;2022-09-09T04:59:44;109834.78;;;15.76;48.01
8627;BME280;4351;51.422;6.794;2022-09-09T05:02:13;109834.84;;;15.78;48.00
8627;BME280;4351;51.422;6.794;2022-09-09T05:04:42;109841.25;;;15.78;47.98
8627;BME280;4351;51.422;6.794;2022-09-09T05:07:11;109848.69;;;15.81;47.99
8627;BME280;4351;51.422;6.794;2022-09-09T05:09:40;109850.56;;;15.82;47.98
8627;BME280;4351;51.422;6.794;2022-09-09T05:12:09;109838.81;;;15.83;47.97
8627;BME280;4351;51.422;6.794;2022-09-09T05:14:43;109790.03;;;15.72;48.09
8627;BME280;4351;51.422;6.794;2022-09-09T05:17:11;109772.94;;;15.75;48.11
8627;BME280;4351;51.422;6.794;2022-09-09T05:19:39;109760.31;;;15.77;48.09
8627;BME280;4351;51.422;6.794;2022-09-09T05:22:08;109758.44;;;15.76;48.09
8627;BME280;4351;51.422;6.794;2022-09-09T05:24:45;109772.13;;;15.78;48.08
8627;BME280;4351;51.422;6.794;2022-09-09T05:27:14;109760.50;;;15.80;48.08
8627;BME280;4351;51.422;6.794;2022-09-09T05:29:43;109734.63;;;15.73;48.12
8627;BME280;4351;51.422;6.794;2022-09-09T05:32:12;109727.22;;;15.71;48.14
8627;BME280;4351;51.422;6.794;2022-09-09T05:34:44;109764.91;;;15.78;48.03
8627;BME280;4351;51.422;6.794;2022-09-09T05:37:14;109805.25;;;15.84;47.96
8627;BME280;4351;51.422;6.794;2022-09-09T05:39:44;109811.19;;;15.77;47.98
8627;BME280;4351;51.422;6.794;2022-09-09T05:42:13;109819.34;;;15.77;47.98
8627;BME280;4351;51.422;6.794;2022-09-09T05:44:43;109882.81;;;15.89;47.83
8627;BME280;4351;51.422;6.794;2022-09-09T05:47:11;109853.09;;;15.79;47.91
8627;BME280;4351;51.422;6.794;2022-09-09T05:49:41;109867.97;;;15.84;47.89
8627;BME280;4351;51.422;6.794;2022-09-09T05:52:09;109874.47;;;15.86;47.88
8627;BME280;4351;51.422;6.794;2022-09-09T05:54:38;109861.00;;;15.89;47.91
8627;BME280;4351;51.422;6.794;2022-09-09T05:57:08;109846.63;;;15.92;47.90
8627;BME280;4351;51.422;6.794;2022-09-09T05:59:38;109868.63;;;15.95;47.88
8627;BME280;4351;51.422;6.794;2022-09-09T06:02:07;109895.34;;;16.01;47.84
8627;BME280;4351;51.422;6.794;2022-09-09T06:04:36;109880.59;;;15.97;47.86
8627;BME280;4351;51.422;6.794;2022-09-09T06:07:05;109885.19;;;15.98;47.85
8627;BME280;4351;51.422;6.794;2022-09-09T06:09:34;109837.69;;;15.94;47.93
8627;BME280;4351;51.422;6.794;2022-09-09T06:12:02;109875.28;;;16.00;47.84
8627;BME280;4351;51.422;6.794;2022-09-09T06:14:34;109899.34;;;16.06;47.80
8627;BME280;4351;51.422;6.794;2022-09-09T06:17:03;109934.97;;;16.09;47.73
8627;BME280;4351;51.422;6.794;2022-09-09T06:19:32;109964.25;;;16.12;47.72
8627;BME280;4351;51.422;6.794;2022-09-09T06:22:01;109990.78;;;16.14;47.68
8627;BME280;4351;51.422;6.794;2022-09-09T06:24:32;109985.97;;;16.10;47.69
8627;BME280;4351;51.422;6.794;2022-09-09T06:27:02;110050.53;;;16.25;47.56
8627;BME280;4351;51.422;6.794;2022-09-09T06:29:34;110066.91;;;16.25;47.56
8627;BME280;4351;51.422;6.794;2022-09-09T06:32:04;110031.88;;;16.17;47.62
8627;BME280;4351;51.422;6.794;2022-09-09T06:34:35;110062.28;;;16.24;47.56
8627;BME280;4351;51.422;6.794;2022-09-09T06:37:03;110068.75;;;16.26;47.52
8627;BME280;4351;51.422;6.794;2022-09-09T06:39:40;110115.75;;;16.35;47.48
8627;BME280;4351;51.422;6.794;2022-09-09T06:42:10;110105.50;;;16.31;47.50
8627;BME280;4351;51.422;6.794;2022-09-09T06:44:58;110139.66;;;16.39;47.44
8627;BME280;4351;51.422;6.794;2022-09-09T06:47:39;110159.72;;;16.40;47.57
8627;BME280;4351;51.422;6.794;2022-09-09T06:50:08;110150.41;;;16.36;47.62
8627;BME280;4351;51.422;6.794;2022-09-09T06:52:38;110172.63;;;16.42;47.59
8627;BME280;4351;51.422;6.794;2022-09-09T06:55:08;110165.19;;;16.40;47.61
8627;BME280;4351;51.422;6.794;2022-09-09T06:57:37;110191.00;;;16.45;47.54
8627;BME280;4351;51.422;6.794;2022-09-09T07:00:12;110231.78;;;16.57;47.49
8627;BME280;4351;51.422;6.794;2022-09-09T07:02:42;110217.75;;;16.66;47.55
8627;BME280;4351;51.422;6.794;2022-09-09T07:05:13;110146.78;;;16.66;47.70
8627;BME280;4351;51.422;6.794;2022-09-09T07:07:44;109983.69;;;16.63;48.01
8627;BME280;4351;51.422;6.794;2022-09-09T07:10:14;109779.44;;;16.73;48.31
8627;BME280;4351;51.422;6.794;2022-09-09T07:12:44;109495.66;;;16.76;48.76
8627;BME280;4351;51.422;6.794;2022-09-09T07:15:14;109209.25;;;16.82;49.12
8627;BME280;4351;51.422;6.794;2022-09-09T07:17:45;108888.84;;;16.82;49.57
8627;BME280;4351;51.422;6.794;2022-09-09T07:20:15;108509.69;;;16.65;50.23
8627;BME280;4351;51.422;6.794;2022-09-09T07:22:55;108190.97;;;16.85;50.54
8627;BME280;4351;51.422;6.794;2022-09-09T07:25:25;107879.75;;;16.84;50.95
8627;BME280;4351;51.422;6.794;2022-09-09T07:27:56;107628.75;;;16.90;51.28
8627;BME280;4351;51.422;6.794;2022-09-09T07:30:25;107381.47;;;17.00;51.63
8627;BME280;4351;51.422;6.794;2022-09-09T07:32:56;107050.31;;;17.06;52.08
8627;BME280;4351;51.422;6.794;2022-09-09T07:35:26;106711.72;;;16.92;52.67
8627;BME280;4351;51.422;6.794;2022-09-09T07:37:54;106445.22;;;16.94;53.09
8627;BME280;4351;51.422;6.794;2022-09-09T07:40:23;106227.81;;;17.05;53.29
8627;BME280;4351;51.422;6.794;2022-09-09T07:42:52;106002.16;;;17.12;53.80
8627;BME280;4351;51.422;6.794;2022-09-09T07:45:21;105332.59;;;17.18;55.63
8627;BME280;4351;51.422;6.794;2022-09-09T07:47:49;104762.97;;;17.26;57.47
8627;BME280;4351;51.422;6.794;2022-09-09T07:50:21;104180.19;;;17.19;61.34
8627;BME280;4351;51.422;6.794;2022-09-09T07:52:50;103385.47;;;17.18;67.93
8627;BME280;4351;51.422;6.794;2022-09-09T07:55:20;103024.59;;;17.18;74.35
8627;BME280;4351;51.422;6.794;2022-09-09T07:57:48;102725.91;;;17.10;83.12
8627;BME280;4351;51.422;6.794;2022-09-09T08:00:19;102170.56;;;17.26;100.00
8627;BME280;4351;51.422;6.794;2022-09-09T08:02:53;101802.56;;;17.24;100.00
8627;BME280;4351;51.422;6.794;2022-09-09T08:05:23;101654.94;;;17.17;100.00
8627;BME280;4351;51.422;6.794;2022-09-09T08:07:52;101646.97;;;17.14;100.00
8627;BME280;4351;51.422;6.794;2022-09-09T08:10:20;101616.78;;;17.17;100.00
8627;BME280;4351;51.422;6.794;2022-09-09T08:12:50;101603.84;;;17.32;100.00
8627;BME280;4351;51.422;6.794;2022-09-09T08:15:39;101565.22;;;17.62;100.00
8627;BME280;4351;51.422;6.794;2022-09-09T08:18:08;101491.47;;;17.63;100.00
8627;BME280;4351;51.422;6.794;2022-09-09T08:20:39;101390.03;;;17.46;100.00
8627;BME280;4351;51.422;6.794;2022-09-09T08:23:07;101356.94;;;17.63;100.00
8627;BME280;4351;51.422;6.794;2022-09-09T08:25:36;101366.69;;;17.88;100.00
8627;BME280;4351;51.422;6.794;2022-09-09T08:28:04;101295.38;;;17.81;100.00
8627;BME280;4351;51.422;6.794;2022-09-09T08:30:33;101240.34;;;17.88;100.00
8627;BME280;4351;51.422;6.794;2022-09-09T08:33:01;101228.81;;;18.06;100.00
8627;BME280;4351;51.422;6.794;2022-09-09T08:35:29;101214.72;;;18.00;100.00
8627;BME280;4351;51.422;6.794;2022-09-09T08:38:01;101182.16;;;17.87;100.00
8627;BME280;4351;51.422;6.794;2022-09-09T08:40:38;101157.22;;;17.92;100.00
8627;BME280;4351;51.422;6.794;2022-09-09T08:43:14;101137.81;;;17.95;100.00
8627;BME280;4351;51.422;6.794;2022-09-09T08:45:50;101131.97;;;18.00;100.00
8627;BME280;4351;51.422;6.794;2022-09-09T08:48:40;101119.88;;;18.14;100.00
8627;BME280;4351;51.422;6.794;2022-09-09T08:51:13;101107.88;;;18.05;100.00
8627;BME280;4351;51.422;6.794;2022-09-09T08:53:49;101097.91;;;17.94;100.00
8627;BME280;4351;51.422;6.794;2022-09-09T08:56:27;101111.59;;;18.25;100.00
8627;BME280;4351;51.422;6.794;2022-09-09T08:59:02;101092.25;;;18.29;100.00
8627;BME280;4351;51.422;6.794;2022-09-09T09:01:44;101089.22;;;18.63;100.00
8627;BME280;4351;51.422;6.794;2022-09-09T09:04:32;101069.94;;;18.55;100.00
8627;BME280;4351;51.422;6.794;2022-09-09T09:07:13;101055.53;;;18.53;100.00
8627;BME280;4351;51.422;6.794;2022-09-09T09:09:54;101038.25;;;18.42;100.00
8627;BME280;4351;51.422;6.794;2022-09-09T09:12:39;101020.31;;;18.49;100.00
8627;BME280;4351;51.422;6.794;2022-09-09T09:15:15;101027.44;;;18.31;100.00
8627;BME280;4351;51.422;6.794;2022-09-09T09:17:46;101001.44;;;18.36;100.00
8627;BME280;4351;51.422;6.794;2022-09-09T09:20:17;101020.13;;;18.41;100.00
8627;BME280;4351;51.422;6.794;2022-09-09T09:22:49;101025.44;;;18.33;100.00
8627;BME280;4351;51.422;6.794;2022-09-09T09:25:22;101016.19;;;18.65;100.00
8627;BME280;4351;51.422;6.794;2022-09-09T09:27:57;100996.41;;;18.93;100.00
8627;BME280;4351;51.422;6.794;2022-09-09T09:30:31;100964.03;;;18.88;100.00
8627;BME280;4351;51.422;6.794;2022-09-09T09:33:11;100938.84;;;18.84;100.00
8627;BME280;4351;51.422;6.794;2022-09-09T09:35:50;100921.88;;;18.91;100.00
8627;BME280;4351;51.422;6.794;2022-09-09T09:38:22;100904.03;;;18.77;100.00
8627;BME280;4351;51.422;6.794;2022-09-09T09:41:13;100900.59;;;18.75;100.00
8627;BME280;4351;51.422;6.794;2022-09-09T09:43:41;100876.59;;;18.68;100.00
8627;BME280;4351;51.422;6.794;2022-09-09T09:46:20;100843.06;;;18.76;100.00
8627;BME280;4351;51.422;6.794;2022-09-09T09:49:20;100816.59;;;18.77;100.00
8627;BME280;4351;51.422;6.794;2022-09-09T10:18:41;100553.59;;;19.49;100.00
8627;BME280;4351;51.422;6.794;2022-09-09T10:26:03;100563.03;;;19.18;100.00
8627;BME280;4351;51.422;6.794;2022-09-09T10:29:05;100568.28;;;19.30;100.00
8627;BME280;4351;51.422;6.794;2022-09-09T10:35:19;100560.75;;;19.50;100.00
8627;BME280;4351;51.422;6.794;2022-09-09T10:46:06;100526.59;;;19.00;100.00
8627;BME280;4351;51.422;6.794;2022-09-09T10:49:07;100520.44;;;19.16;100.00
8627;BME280;4351;51.422;6.794;2022-09-09T10:52:00;100516.44;;;19.10;100.00
8627;BME280;4351;51.422;6.794;2022-09-09T10:54:41;100509.50;;;19.16;100.00
8627;BME280;4351;51.422;6.794;2022-09-09T10:57:24;100504.09;;;19.06;100.00
8627;BME280;4351;51.422;6.794;2022-09-09T11:00:04;100492.34;;;19.24;100.00
8627;BME280;4351;51.422;6.794;2022-09-09T11:02:42;100497.56;;;19.35;100.00
8627;BME280;4351;51.422;6.794;2022-09-09T11:05:27;100490.50;;;19.51;100.00
8627;BME280;4351;51.422;6.794;2022-09-09T11:16:27;100485.38;;;19.48;100.00
8627;BME280;4351;51.422;6.794;2022-09-09T11:19:12;100492.41;;;19.32;100.00
8627;BME280;4351;51.422;6.794;2022-09-09T11:22:03;100489.16;;;19.55;100.00
8627;BME280;4351;51.422;6.794;2022-09-09T11:37:49;100445.25;;;19.83;100.00
8627;BME280;4351;51.422;6.794;2022-09-09T11:44:33;100460.53;;;19.94;100.00
8627;BME280;4351;51.422;6.794;2022-09-09T11:47:23;100461.03;;;19.90;100.00
8627;BME280;4351;51.422;6.794;2022-09-09T11:50:08;100461.88;;;19.90;100.00
8627;BME280;4351;51.422;6.794;2022-09-09T11:52:43;100466.53;;;19.90;100.00
8627;BME280;4351;51.422;6.794;2022-09-09T11:55:25;100479.84;;;20.11;100.00
8627;BME280;4351;51.422;6.794;2022-09-09T11:57:57;100481.59;;;19.94;100.00
8627;BME280;4351;51.422;6.794;2022-09-09T12:00:34;100474.88;;;19.88;100.00
8627;BME280;4351;51.422;6.794;2022-09-09T12:03:05;100465.31;;;19.92;100.00
8627;BME280;4351;51.422;6.794;2022-09-09T12:05:42;100460.97;;;19.81;100.00
8627;BME280;4351;51.422;6.794;2022-09-09T12:08:20;100455.78;;;19.70;100.00
8627;BME280;4351;51.422;6.794;2022-09-09T12:10:54;100451.72;;;19.74;100.00
8627;BME280;4351;51.422;6.794;2022-09-09T12:13:25;100469.34;;;19.53;100.00
8627;BME280;4351;51.422;6.794;2022-09-09T12:15:55;100464.56;;;19.82;100.00
8627;BME280;4351;51.422;6.794;2022-09-09T12:18:31;100466.34;;;19.91;100.00
8627;BME280;4351;51.422;6.794;2022-09-09T12:21:06;100462.66;;;19.74;100.00
8627;BME280;4351;51.422;6.794;2022-09-09T12:23:40;100462.88;;;19.81;100.00
8627;BME280;4351;51.422;6.794;2022-09-09T12:26:24;100454.88;;;19.87;100.00
8627;BME280;4351;51.422;6.794;2022-09-09T12:29:04;100456.19;;;20.10;100.00
8627;BME280;4351;51.422;6.794;2022-09-09T12:31:41;100450.59;;;19.85;100.00
8627;BME280;4351;51.422;6.794;2022-09-09T12:34:15;100447.06;;;20.01;100.00
8627;BME280;4351;51.422;6.794;2022-09-09T12:36:50;100484.34;;;19.94;100.00
8627;BME280;4351;51.422;6.794;2022-09-09T12:39:27;100480.75;;;19.48;100.00
8627;BME280;4351;51.422;6.794;2022-09-09T12:41:58;100474.75;;;19.08;100.00
8627;BME280;4351;51.422;6.794;2022-09-09T12:44:29;100465.69;;;18.43;100.00
8627;BME280;4351;51.422;6.794;2022-09-09T12:47:01;100415.50;;;18.06;100.00
8627;BME280;4351;51.422;6.794;2022-09-09T12:49:59;100385.13;;;18.00;100.00
8627;BME280;4351;51.422;6.794;2022-09-09T12:52:34;100373.66;;;17.97;100.00
8627;BME280;4351;51.422;6.794;2022-09-09T12:55:06;100389.50;;;17.83;100.00
8627;BME280;4351;51.422;6.794;2022-09-09T12:57:36;100458.03;;;17.60;100.00
8627;BME280;4351;51.422;6.794;2022-09-09T13:00:15;100553.03;;;17.45;100.00
8627;BME280;4351;51.422;6.794;2022-09-09T13:02:52;100634.38;;;17.20;100.00
8627;BME280;4351;51.422;6.794;2022-09-09T13:05:35;100719.13;;;17.17;100.00
8627;BME280;4351;51.422;6.794;2022-09-09T13:08:05;100817.59;;;17.12;100.00
8627;BME280;4351;51.422;6.794;2022-09-09T13:10:38;100881.56;;;16.86;100.00
8627;BME280;4351;51.422;6.794;2022-09-09T13:13:29;101050.31;;;16.88;100.00
8627;BME280;4351;51.422;6.794;2022-09-09T13:16:00;101322.19;;;16.96;100.00
8627;BME280;4351;51.422;6.794;2022-09-09T13:18:32;101653.38;;;17.13;100.00
8627;BME280;4351;51.422;6.794;2022-09-09T13:21:01;101963.41;;;17.11;100.00
8627;BME280;4351;51.422;6.794;2022-09-09T13:23:32;102356.28;;;17.35;98.44
8627;BME280;4351;51.422;6.794;2022-09-09T13:26:05;102756.28;;;17.37;80.91
8627;BME280;4351;51.422;6.794;2022-09-09T13:28:36;103128.56;;;17.29;71.80
8627;BME280;4351;51.422;6.794;2022-09-09T13:31:17;103410.94;;;17.38;70.89
8627;BME280;4351;51.422;6.794;2022-09-09T13:33:47;103683.66;;;17.41;67.42
8627;BME280;4351;51.422;6.794;2022-09-09T13:36:15;103932.13;;;17.61;63.08
8627;BME280;4351;51.422;6.794;2022-09-09T13:38:53;104173.03;;;17.67;60.51
8627;BME280;4351;51.422;6.794;2022-09-09T13:41:25;104315.91;;;17.68;59.67
8627;BME280;4351;51.422;6.794;2022-09-09T13:43:57;104493.41;;;17.66;61.29
8627;BME280;4351;51.422;6.794;2022-09-09T13:46:33;104686.16;;;17.74;60.27
8627;BME280;4351;51.422;6.794;2022-09-09T13:49:21;104849.78;;;17.83;59.19
8627;BME280;4351;51.422;6.794;2022-09-09T13:51:51;104993.66;;;17.83;58.45
8627;BME280;4351;51.422;6.794;2022-09-09T13:54:21;105098.78;;;18.04;57.76
8627;BME280;4351;51.422;6.794;2022-09-09T13:56:53;105229.34;;;18.32;56.48
8627;BME280;4351;51.422;6.794;2022-09-09T13:59:22;105327.97;;;18.23;54.89
8627;BME280;4351;51.422;6.794;2022-09-09T14:02:03;105523.75;;;18.30;54.08
8627;BME280;4351;51.422;6.794;2022-09-09T14:04:32;105653.09;;;18.34;53.83
8627;BME280;4351;51.422;6.794;2022-09-09T14:07:02;105766.09;;;18.36;53.37
8627;BME280;4351;51.422;6.794;2022-09-09T14:09:31;105870.88;;;18.38;53.01
8627;BME280;4351;51.422;6.794;2022-09-09T14:12:03;105860.81;;;18.38;53.49
8627;BME280;4351;51.422;6.794;2022-09-09T14:14:31;105653.81;;;18.45;55.10
8627;BME280;4351;51.422;6.794;2022-09-09T14:17:00;105262.00;;;18.38;58.22
8627;BME280;4351;51.422;6.794;2022-09-09T14:19:33;104661.56;;;18.36;64.75
8627;BME280;4351;51.422;6.794;2022-09-09T14:22:02;104006.00;;;18.47;73.75
8627;BME280;4351;51.422;6.794;2022-09-09T14:24:30;103566.41;;;18.38;79.72
8627;BME280;4351;51.422;6.794;2022-09-09T14:26:58;103516.19;;;18.41;78.17
8627;BME280;4351;51.422;6.794;2022-09-09T14:29:28;103231.56;;;18.48;94.22
8627;BME280;4351;51.422;6.794;2022-09-09T14:31:56;102586.53;;;18.65;100.00
8627;BME280;4351;51.422;6.794;2022-09-09T14:34:27;102056.00;;;18.56;100.00
8627;BME280;4351;51.422;6.794;2022-09-09T14:36:56;101879.03;;;18.48;100.00
8627;BME280;4351;51.422;6.794;2022-09-09T14:39:27;101980.06;;;18.24;100.00
8627;BME280;4351;51.422;6.794;2022-09-09T14:41:56;101760.75;;;17.74;100.00
8627;BME280;4351;51.422;6.794;2022-09-09T14:44:24;101724.56;;;17.34;100.00
8627;BME280;4351;51.422;6.794;2022-09-09T14:46:54;101771.38;;;17.02;100.00
8627;BME280;4351;51.422;6.794;2022-09-09T14:49:22;101857.72;;;16.88;100.00
8627;BME280;4351;51.422;6.794;2022-09-09T14:51:50;101903.22;;;16.60;100.00